CMA CGM Balzac — DIHN — position and weather

sailwx.info

Track history (hours):
 
Tides and Currents Weather Stations Pressure Air Temp Water Temp Dewpoint Dewpoint Depression Visibility Wind Speed Wind Dir Waves Ship Positions

CMA CGM Balzac

Last reported at 2015-Mar-27 20:19 UTC. Time now 2015-Mar-27 22:07 UTC.
Position N 36°15' W 007°49'.

Length 300.3 m; beam 40.3 m; draft 14 m.

Type: Ship. MMSI: 211378810.

Date/timePositionNaut miles runAvg speedWind from/ knotsBaromVisibWave heightAir tempDewpointWater temp
2015-Mar-27 20:19N 36°15' W 007°49'1215.8
2015-Mar-27 19:33N 36°19' W 008°04'1615.9
2015-Mar-27 18:33N 36°23' W 008°23'5015.8
2015-Mar-27 15:24N 36°38' W 009°22'3015.5
2015-Mar-27 13:28N 37°05' W 009°38'1615.8
2015-Mar-27 12:27N 37°21' W 009°42'3 6.7
2015-Mar-27 12:00N 37°24' W 009°42'1225.2 020 / 191031.0 1.520.810.616.0
2015-Mar-27 11:32N 37°35' W 009°47'1915.8
2015-Mar-27 10:21N 37°53' W 009°52'1315.8
2015-Mar-27 09:33N 38°06' W 009°55'1919.2
2015-Mar-27 08:33N 38°24' W 010°01'2020.1
2015-Mar-27 07:33N 38°44' W 010°07'1716.6
2015-Mar-27 06:31N 39°01' W 010°07'32615.1
2015-Mar-26 09:00N 44°24' W 009°12'39516.5 280 / 361017.3 0.5 2.012.011.214.0
2015-Mar-25 09:00N 49°30' W 003°06'22 8.3 360 / 261014.210.8 2.5 8.5 2.312.0
2015-Mar-25 06:20N 49°51' W 003°15'1417.6
2015-Mar-25 05:31N 49°57' W 002°54'8216.1
2015-Mar-25 00:27N 49°44' W 000°50'1314.1
2015-Mar-24 23:33N 49°39' W 000°32'1414.2
2015-Mar-24 22:33N 49°33' W 000°12'1212.0
2015-Mar-24 21:33N 49°29' E 000°05'3 3.0
2015-Mar-24 20:33N 49°29' E 000°10'0 0.0
2015-Mar-24 19:31N 49°29' E 000°10'0 0.0
2015-Mar-24 18:34N 49°29' E 000°10'0 0.0
2015-Mar-24 17:33N 49°29' E 000°10'0 0.0
2015-Mar-24 16:33N 49°29' E 000°10'0 0.0
2015-Mar-24 15:32N 49°29' E 000°10'0 0.0
2015-Mar-24 14:32N 49°29' E 000°10'0 0.0
2015-Mar-24 13:31N 49°29' E 000°10'0 0.0
2015-Mar-24 12:31N 49°29' E 000°10'0 0.0
2015-Mar-24 11:33N 49°29' E 000°10'0 0.0
2015-Mar-24 10:34N 49°29' E 000°10'0 0.0
2015-Mar-24 09:31N 49°29' E 000°10'0 0.0
2015-Mar-24 08:31N 49°29' E 000°10'0 0.0
2015-Mar-24 07:33N 49°29' E 000°10'0 0.0
2015-Mar-24 06:33N 49°29' E 000°10'0 0.0
2015-Mar-24 05:32N 49°29' E 000°10'0 0.0
2015-Mar-24 04:32N 49°29' E 000°10'0 0.0
2015-Mar-24 03:31N 49°29' E 000°10'0 0.0
2015-Mar-24 02:31N 49°29' E 000°10'0 0.0
2015-Mar-24 01:31N 49°29' E 000°10'0 0.0
2015-Mar-24 00:33N 49°29' E 000°10'0 0.0
2015-Mar-23 23:33N 49°29' E 000°10'0 0.0
2015-Mar-23 22:32N 49°29' E 000°10'0 0.0
2015-Mar-23 21:32N 49°29' E 000°10'1 0.9
2015-Mar-23 20:33N 49°28' E 000°09'1010.0
2015-Mar-23 19:33N 49°31' W 000°06'4 3.7
2015-Mar-23 18:31N 49°35' W 000°09'0 0.0
2015-Mar-23 17:31N 49°35' W 000°09'0 0.0
2015-Mar-23 16:33N 49°35' W 000°09'0 0.0
2015-Mar-23 15:33N 49°35' W 000°09'0 0.0
2015-Mar-23 14:32N 49°35' W 000°09'0 0.2
2015-Mar-23 13:32N 49°35' W 000°09'2 2.1
2015-Mar-23 12:34N 49°37' W 000°09'4211.7
2015-Mar-23 09:00N 50°18' E 000°00'912.6 320 / 71018.4 5.4 0.5 9.3 1.011.0
2015-Mar-23 08:16N 50°27' W 000°02'1112.3
2015-Mar-23 07:21N 50°31' E 000°15'1012.7
2015-Mar-23 06:33N 50°35' E 000°30'1413.9
2015-Mar-23 05:33N 50°41' E 000°49'1513.0
2015-Mar-23 04:24N 50°49' E 001°09'1011.5
2015-Mar-23 03:33N 50°56' E 001°20'10 9.8
2015-Mar-23 02:33N 51°03' E 001°31'8 8.1
2015-Mar-23 01:33N 51°06' E 001°43'1111.2
2015-Mar-23 00:34N 51°03' E 001°60'7 6.4
2015-Mar-22 23:25N 51°00' E 002°11'0 0.0
2015-Mar-22 19:05N 51°00' E 002°11'0 0.0
2015-Mar-22 18:23N 51°00' E 002°11'0 0.0
2015-Mar-22 17:31N 51°00' E 002°11'1 0.1
2015-Mar-22 11:33N 51°01' E 002°11'10 9.6
2015-Mar-22 10:33N 51°02' E 001°56'8 7.5
2015-Mar-22 09:33N 51°03' E 001°44'5 5.4
2015-Mar-22 08:33N 51°08' E 001°40'1212.3
2015-Mar-22 07:33N 51°18' E 001°50'1211.3
2015-Mar-22 06:31N 51°23' E 002°07'1212.6
2015-Mar-22 05:33N 51°23' E 002°27'1311.1
2015-Mar-22 04:22N 51°25' E 002°48'1315.6
2015-Mar-22 03:32N 51°24' E 003°08'1515.4
2015-Mar-22 02:33N 51°25' E 003°33'9 9.3
2015-Mar-22 01:33N 51°22' E 003°46'1010.4
2015-Mar-22 00:33N 51°25' E 004°02'9 9.1
2015-Mar-21 23:34N 51°21' E 004°15'4 3.4
2015-Mar-21 22:29N 51°17' E 004°16'0 0.0
2015-Mar-21 21:31N 51°17' E 004°16'0 0.0
2015-Mar-21 20:31N 51°17' E 004°16'0 0.0
2015-Mar-21 19:33N 51°17' E 004°16'0 0.0
2015-Mar-21 18:32N 51°17' E 004°16'0 0.0
2015-Mar-21 17:29N 51°17' E 004°16'0 0.0
2015-Mar-21 16:32N 51°17' E 004°16'0 0.0
2015-Mar-21 15:28N 51°17' E 004°16'0 0.0
2015-Mar-21 14:31N 51°17' E 004°16'0 0.0
2015-Mar-21 13:31N 51°17' E 004°16'0 0.0
2015-Mar-21 12:24N 51°17' E 004°16'0 0.0
2015-Mar-21 11:30N 51°17' E 004°16'0 0.0
2015-Mar-21 10:29N 51°17' E 004°16'0 0.0
2015-Mar-21 09:32N 51°17' E 004°16'0 0.0
2015-Mar-21 08:28N 51°17' E 004°16'0 0.0
2015-Mar-21 07:31N 51°17' E 004°16'0 0.0
2015-Mar-21 06:31N 51°17' E 004°16'0 0.0
2015-Mar-21 05:33N 51°17' E 004°16'0 0.0
2015-Mar-21 04:21N 51°17' E 004°16'0 0.0
2015-Mar-21 03:33N 51°17' E 004°16'0 0.0
2015-Mar-21 02:29N 51°17' E 004°16'0 0.0
2015-Mar-21 01:28N 51°17' E 004°16'0 0.0
2015-Mar-21 00:31N 51°17' E 004°16'0 0.1
2015-Mar-20 23:34N 51°18' E 004°16'5 4.9
2015-Mar-20 22:33N 51°22' E 004°13'9 8.9
2015-Mar-20 21:33N 51°26' E 004°00'1111.3
2015-Mar-20 20:33N 51°24' E 003°43'1111.4
2015-Mar-20 19:33N 51°25' E 003°24'1514.5
2015-Mar-20 18:34N 51°25' E 003°01'1514.8
2015-Mar-20 17:33N 51°38' E 003°11'1111.4
2015-Mar-20 16:33N 51°49' E 003°16'2018.2
2015-Mar-20 15:29N 52°08' E 003°22'2318.2
2015-Mar-20 14:14N 52°31' E 003°28'1317.3
2015-Mar-20 13:28N 52°43' E 003°38'1819.7
2015-Mar-20 12:32N 52°57' E 003°58'2221.0
2015-Mar-20 11:29N 53°11' E 004°25'2021.6
2015-Mar-20 10:33N 53°31' E 004°35'2020.5
2015-Mar-20 09:33N 53°36' E 005°08'2020.0
2015-Mar-20 08:32N 53°41' E 005°41'2019.4
2015-Mar-20 07:32N 53°48' E 006°12'1919.5
2015-Mar-20 06:33N 53°52' E 006°44'2120.3
2015-Mar-20 05:32N 53°57' E 007°18'2121.2
2015-Mar-20 04:33N 54°02' E 007°52'1817.7
2015-Mar-20 03:33N 53°59' E 008°22'1716.8
2015-Mar-20 02:33N 53°51' E 008°46'1414.4
2015-Mar-20 01:34N 53°53' E 009°11'1111.3
2015-Mar-20 00:33N 53°45' E 009°24'1111.1
2015-Mar-19 23:33N 53°36' E 009°35'10 9.7
2015-Mar-19 22:34N 53°33' E 009°51'2 2.2
2015-Mar-19 21:28N 53°32' E 009°55'0 0.0
2015-Mar-19 20:33N 53°32' E 009°55'0 0.0
2015-Mar-19 19:31N 53°32' E 009°55'0 0.0
2015-Mar-19 18:33N 53°32' E 009°55'0 0.0
2015-Mar-19 17:33N 53°32' E 009°55'0 0.0
2015-Mar-19 16:31N 53°32' E 009°55'0 0.0
2015-Mar-19 15:30N 53°32' E 009°55'0 0.0
2015-Mar-19 14:33N 53°32' E 009°55'0 0.0
2015-Mar-19 13:32N 53°32' E 009°55'0 0.0
2015-Mar-19 12:33N 53°32' E 009°55'0 0.0
2015-Mar-19 11:31N 53°32' E 009°55'0 0.0
2015-Mar-19 10:28N 53°32' E 009°55'0 0.0
2015-Mar-19 09:33N 53°32' E 009°55'0 0.0
2015-Mar-19 08:33N 53°32' E 009°55'0 0.0
2015-Mar-19 07:32N 53°32' E 009°55'0 0.0
2015-Mar-19 06:32N 53°32' E 009°55'0 0.0
2015-Mar-19 05:32N 53°32' E 009°55'0 0.0
2015-Mar-19 04:32N 53°32' E 009°55'0 0.0
2015-Mar-19 03:31N 53°32' E 009°55'0 0.0
2015-Mar-19 02:31N 53°32' E 009°55'0 0.0
2015-Mar-19 01:33N 53°32' E 009°55'0 0.0
2015-Mar-19 00:33N 53°32' E 009°55'0 0.0
2015-Mar-18 23:32N 53°32' E 009°55'0 0.4
2015-Mar-18 22:33N 53°32' E 009°54'10 9.6
2015-Mar-18 21:33N 53°35' E 009°38'1313.1
2015-Mar-18 20:33N 53°45' E 009°25'1312.6
2015-Mar-18 19:33N 53°53' E 009°08'1212.3
2015-Mar-18 18:33N 53°50' E 008°47'9 8.5
2015-Mar-18 17:33N 53°57' E 008°38'8 8.4
2015-Mar-18 16:33N 53°59' E 008°24'1010.0
2015-Mar-18 15:33N 53°59' E 008°07'2 1.6
2015-Mar-18 14:33N 53°59' E 008°05'2 1.6
2015-Mar-18 13:33N 53°59' E 008°02'6 5.8
2015-Mar-18 12:33N 53°58' E 007°52'7 7.1
2015-Mar-18 11:33N 53°56' E 007°40'1414.3
2015-Mar-18 10:33N 53°53' E 007°17'2120.5
2015-Mar-18 09:33N 53°49' E 006°42'1628.7
2015-Mar-18 09:00N 53°42' E 006°18'612.9 320 / 81026.8 1.1 7.7 5.3 9.0
2015-Mar-18 08:33N 53°44' E 006°09'2121.2
2015-Mar-18 07:33N 53°36' E 005°36'2121.1
2015-Mar-18 06:33N 53°29' E 005°02'2020.1
2015-Mar-18 05:33N 53°16' E 004°36'2120.9
2015-Mar-18 04:33N 52°57' E 004°20'2121.1
2015-Mar-18 03:33N 52°39' E 004°02'1818.1
2015-Mar-18 02:34N 52°22' E 003°52'1313.5
2015-Mar-18 01:33N 52°09' E 003°55'10 9.5
2015-Mar-18 00:33N 52°00' E 004°01'4 3.5
2015-Mar-17 23:33N 51°57' E 004°04'1 0.6
2015-Mar-17 22:31N 51°57' E 004°03'0 0.0
2015-Mar-17 21:28N 51°57' E 004°03'0 0.0
2015-Mar-17 20:33N 51°57' E 004°03'  
Track history (hours):
 
Tides and Currents Weather Stations Pressure Air Temp Water Temp Dewpoint Dewpoint Depression Visibility Wind Speed Wind Dir Waves Ship Positions

CMA CGM Balzac

Last reported at 2015-Mar-27 20:19 UTC. Time now 2015-Mar-27 22:07 UTC.
Position N 36°15' W 007°49'.

Length 300.3 m; beam 40.3 m; draft 14 m.

Type: Ship. MMSI: 211378810.

Date/timePositionNaut miles runAvg speedWind from/ knotsBaromVisibWave heightAir tempDewpointWater temp
2015-Mar-27 20:19N 36°15' W 007°49'1215.8
2015-Mar-27 19:33N 36°19' W 008°04'1615.9
2015-Mar-27 18:33N 36°23' W 008°23'5015.8
2015-Mar-27 15:24N 36°38' W 009°22'3015.5
2015-Mar-27 13:28N 37°05' W 009°38'1615.8
2015-Mar-27 12:27N 37°21' W 009°42'3 6.7
2015-Mar-27 12:00N 37°24' W 009°42'1225.2 020 / 191031.0 1.520.810.616.0
2015-Mar-27 11:32N 37°35' W 009°47'1915.8
2015-Mar-27 10:21N 37°53' W 009°52'1315.8
2015-Mar-27 09:33N 38°06' W 009°55'1919.2
2015-Mar-27 08:33N 38°24' W 010°01'2020.1
2015-Mar-27 07:33N 38°44' W 010°07'1716.6
2015-Mar-27 06:31N 39°01' W 010°07'32615.1
2015-Mar-26 09:00N 44°24' W 009°12'39516.5 280 / 361017.3 0.5 2.012.011.214.0
2015-Mar-25 09:00N 49°30' W 003°06'22 8.3 360 / 261014.210.8 2.5 8.5 2.312.0
2015-Mar-25 06:20N 49°51' W 003°15'1417.6
2015-Mar-25 05:31N 49°57' W 002°54'8216.1
2015-Mar-25 00:27N 49°44' W 000°50'1314.1
2015-Mar-24 23:33N 49°39' W 000°32'1414.2
2015-Mar-24 22:33N 49°33' W 000°12'1212.0
2015-Mar-24 21:33N 49°29' E 000°05'3 3.0
2015-Mar-24 20:33N 49°29' E 000°10'0 0.0
2015-Mar-24 19:31N 49°29' E 000°10'0 0.0
2015-Mar-24 18:34N 49°29' E 000°10'0 0.0
2015-Mar-24 17:33N 49°29' E 000°10'0 0.0
2015-Mar-24 16:33N 49°29' E 000°10'0 0.0
2015-Mar-24 15:32N 49°29' E 000°10'0 0.0
2015-Mar-24 14:32N 49°29' E 000°10'0 0.0
2015-Mar-24 13:31N 49°29' E 000°10'0 0.0
2015-Mar-24 12:31N 49°29' E 000°10'0 0.0
2015-Mar-24 11:33N 49°29' E 000°10'0 0.0
2015-Mar-24 10:34N 49°29' E 000°10'0 0.0
2015-Mar-24 09:31N 49°29' E 000°10'0 0.0
2015-Mar-24 08:31N 49°29' E 000°10'0 0.0
2015-Mar-24 07:33N 49°29' E 000°10'0 0.0
2015-Mar-24 06:33N 49°29' E 000°10'0 0.0
2015-Mar-24 05:32N 49°29' E 000°10'0 0.0
2015-Mar-24 04:32N 49°29' E 000°10'0 0.0
2015-Mar-24 03:31N 49°29' E 000°10'0 0.0
2015-Mar-24 02:31N 49°29' E 000°10'0 0.0
2015-Mar-24 01:31N 49°29' E 000°10'0 0.0
2015-Mar-24 00:33N 49°29' E 000°10'0 0.0
2015-Mar-23 23:33N 49°29' E 000°10'0 0.0
2015-Mar-23 22:32N 49°29' E 000°10'0 0.0
2015-Mar-23 21:32N 49°29' E 000°10'1 0.9
2015-Mar-23 20:33N 49°28' E 000°09'1010.0
2015-Mar-23 19:33N 49°31' W 000°06'4 3.7
2015-Mar-23 18:31N 49°35' W 000°09'0 0.0
2015-Mar-23 17:31N 49°35' W 000°09'0 0.0
2015-Mar-23 16:33N 49°35' W 000°09'0 0.0
2015-Mar-23 15:33N 49°35' W 000°09'0 0.0
2015-Mar-23 14:32N 49°35' W 000°09'0 0.2
2015-Mar-23 13:32N 49°35' W 000°09'2 2.1
2015-Mar-23 12:34N 49°37' W 000°09'4211.7
2015-Mar-23 09:00N 50°18' E 000°00'912.6 320 / 71018.4 5.4 0.5 9.3 1.011.0
2015-Mar-23 08:16N 50°27' W 000°02'1112.3
2015-Mar-23 07:21N 50°31' E 000°15'1012.7
2015-Mar-23 06:33N 50°35' E 000°30'1413.9
2015-Mar-23 05:33N 50°41' E 000°49'1513.0
2015-Mar-23 04:24N 50°49' E 001°09'1011.5
2015-Mar-23 03:33N 50°56' E 001°20'10 9.8
2015-Mar-23 02:33N 51°03' E 001°31'8 8.1
2015-Mar-23 01:33N 51°06' E 001°43'1111.2
2015-Mar-23 00:34N 51°03' E 001°60'7 6.4
2015-Mar-22 23:25N 51°00' E 002°11'0 0.0
2015-Mar-22 19:05N 51°00' E 002°11'0 0.0
2015-Mar-22 18:23N 51°00' E 002°11'0 0.0
2015-Mar-22 17:31N 51°00' E 002°11'1 0.1
2015-Mar-22 11:33N 51°01' E 002°11'10 9.6
2015-Mar-22 10:33N 51°02' E 001°56'8 7.5
2015-Mar-22 09:33N 51°03' E 001°44'5 5.4
2015-Mar-22 08:33N 51°08' E 001°40'1212.3
2015-Mar-22 07:33N 51°18' E 001°50'1211.3
2015-Mar-22 06:31N 51°23' E 002°07'1212.6
2015-Mar-22 05:33N 51°23' E 002°27'1311.1
2015-Mar-22 04:22N 51°25' E 002°48'1315.6
2015-Mar-22 03:32N 51°24' E 003°08'1515.4
2015-Mar-22 02:33N 51°25' E 003°33'9 9.3
2015-Mar-22 01:33N 51°22' E 003°46'1010.4
2015-Mar-22 00:33N 51°25' E 004°02'9 9.1
2015-Mar-21 23:34N 51°21' E 004°15'4 3.4
2015-Mar-21 22:29N 51°17' E 004°16'0 0.0
2015-Mar-21 21:31N 51°17' E 004°16'0 0.0
2015-Mar-21 20:31N 51°17' E 004°16'0 0.0
2015-Mar-21 19:33N 51°17' E 004°16'0 0.0
2015-Mar-21 18:32N 51°17' E 004°16'0 0.0
2015-Mar-21 17:29N 51°17' E 004°16'0 0.0
2015-Mar-21 16:32N 51°17' E 004°16'0 0.0
2015-Mar-21 15:28N 51°17' E 004°16'0 0.0
2015-Mar-21 14:31N 51°17' E 004°16'0 0.0
2015-Mar-21 13:31N 51°17' E 004°16'0 0.0
2015-Mar-21 12:24N 51°17' E 004°16'0 0.0
2015-Mar-21 11:30N 51°17' E 004°16'0 0.0
2015-Mar-21 10:29N 51°17' E 004°16'0 0.0
2015-Mar-21 09:32N 51°17' E 004°16'0 0.0
2015-Mar-21 08:28N 51°17' E 004°16'0 0.0
2015-Mar-21 07:31N 51°17' E 004°16'0 0.0
2015-Mar-21 06:31N 51°17' E 004°16'0 0.0
2015-Mar-21 05:33N 51°17' E 004°16'0 0.0
2015-Mar-21 04:21N 51°17' E 004°16'0 0.0
2015-Mar-21 03:33N 51°17' E 004°16'0 0.0
2015-Mar-21 02:29N 51°17' E 004°16'0 0.0
2015-Mar-21 01:28N 51°17' E 004°16'0 0.0
2015-Mar-21 00:31N 51°17' E 004°16'0 0.1
2015-Mar-20 23:34N 51°18' E 004°16'5 4.9
2015-Mar-20 22:33N 51°22' E 004°13'9 8.9
2015-Mar-20 21:33N 51°26' E 004°00'1111.3
2015-Mar-20 20:33N 51°24' E 003°43'1111.4
2015-Mar-20 19:33N 51°25' E 003°24'1514.5
2015-Mar-20 18:34N 51°25' E 003°01'1514.8
2015-Mar-20 17:33N 51°38' E 003°11'1111.4
2015-Mar-20 16:33N 51°49' E 003°16'2018.2
2015-Mar-20 15:29N 52°08' E 003°22'2318.2
2015-Mar-20 14:14N 52°31' E 003°28'1317.3
2015-Mar-20 13:28N 52°43' E 003°38'1819.7
2015-Mar-20 12:32N 52°57' E 003°58'2221.0
2015-Mar-20 11:29N 53°11' E 004°25'2021.6
2015-Mar-20 10:33N 53°31' E 004°35'2020.5
2015-Mar-20 09:33N 53°36' E 005°08'2020.0
2015-Mar-20 08:32N 53°41' E 005°41'2019.4
2015-Mar-20 07:32N 53°48' E 006°12'1919.5
2015-Mar-20 06:33N 53°52' E 006°44'2120.3
2015-Mar-20 05:32N 53°57' E 007°18'2121.2
2015-Mar-20 04:33N 54°02' E 007°52'1817.7
2015-Mar-20 03:33N 53°59' E 008°22'1716.8
2015-Mar-20 02:33N 53°51' E 008°46'1414.4
2015-Mar-20 01:34N 53°53' E 009°11'1111.3
2015-Mar-20 00:33N 53°45' E 009°24'1111.1
2015-Mar-19 23:33N 53°36' E 009°35'10 9.7
2015-Mar-19 22:34N 53°33' E 009°51'2 2.2
2015-Mar-19 21:28N 53°32' E 009°55'0 0.0
2015-Mar-19 20:33N 53°32' E 009°55'0 0.0
2015-Mar-19 19:31N 53°32' E 009°55'0 0.0
2015-Mar-19 18:33N 53°32' E 009°55'0 0.0
2015-Mar-19 17:33N 53°32' E 009°55'0 0.0
2015-Mar-19 16:31N 53°32' E 009°55'0 0.0
2015-Mar-19 15:30N 53°32' E 009°55'0 0.0
2015-Mar-19 14:33N 53°32' E 009°55'0 0.0
2015-Mar-19 13:32N 53°32' E 009°55'0 0.0
2015-Mar-19 12:33N 53°32' E 009°55'0 0.0
2015-Mar-19 11:31N 53°32' E 009°55'0 0.0
2015-Mar-19 10:28N 53°32' E 009°55'0 0.0
2015-Mar-19 09:33N 53°32' E 009°55'0 0.0
2015-Mar-19 08:33N 53°32' E 009°55'0 0.0
2015-Mar-19 07:32N 53°32' E 009°55'0 0.0
2015-Mar-19 06:32N 53°32' E 009°55'0 0.0
2015-Mar-19 05:32N 53°32' E 009°55'0 0.0
2015-Mar-19 04:32N 53°32' E 009°55'0 0.0
2015-Mar-19 03:31N 53°32' E 009°55'0 0.0
2015-Mar-19 02:31N 53°32' E 009°55'0 0.0
2015-Mar-19 01:33N 53°32' E 009°55'0 0.0
2015-Mar-19 00:33N 53°32' E 009°55'0 0.0
2015-Mar-18 23:32N 53°32' E 009°55'0 0.4
2015-Mar-18 22:33N 53°32' E 009°54'10 9.6
2015-Mar-18 21:33N 53°35' E 009°38'1313.1
2015-Mar-18 20:33N 53°45' E 009°25'1312.6
2015-Mar-18 19:33N 53°53' E 009°08'1212.3
2015-Mar-18 18:33N 53°50' E 008°47'9 8.5
2015-Mar-18 17:33N 53°57' E 008°38'8 8.4
2015-Mar-18 16:33N 53°59' E 008°24'1010.0
2015-Mar-18 15:33N 53°59' E 008°07'2 1.6
2015-Mar-18 14:33N 53°59' E 008°05'2 1.6
2015-Mar-18 13:33N 53°59' E 008°02'6 5.8
2015-Mar-18 12:33N 53°58' E 007°52'7 7.1
2015-Mar-18 11:33N 53°56' E 007°40'1414.3
2015-Mar-18 10:33N 53°53' E 007°17'2120.5
2015-Mar-18 09:33N 53°49' E 006°42'1628.7
2015-Mar-18 09:00N 53°42' E 006°18'612.9 320 / 81026.8 1.1 7.7 5.3 9.0
2015-Mar-18 08:33N 53°44' E 006°09'2121.2
2015-Mar-18 07:33N 53°36' E 005°36'2121.1
2015-Mar-18 06:33N 53°29' E 005°02'2020.1
2015-Mar-18 05:33N 53°16' E 004°36'2120.9
2015-Mar-18 04:33N 52°57' E 004°20'2121.1
2015-Mar-18 03:33N 52°39' E 004°02'1818.1
2015-Mar-18 02:34N 52°22' E 003°52'1313.5
2015-Mar-18 01:33N 52°09' E 003°55'10 9.5
2015-Mar-18 00:33N 52°00' E 004°01'4 3.5
2015-Mar-17 23:33N 51°57' E 004°04'1 0.6
2015-Mar-17 22:31N 51°57' E 004°03'0 0.0
2015-Mar-17 21:28N 51°57' E 004°03'0 0.0
2015-Mar-17 20:33N 51°57' E 004°03'  

Dump ship's entire track history